Flight Track Log - Related Links

Times and Time Zones

All times are in EDT time to prevent confusion due to time zone crossing. See the UAL335 flight status page for this flight to view local times or setup timezone preferences in your user account.

Time Position Orientation Groundspeed Altitude Reporting Facility
EDT Latitude Longitude Course Direction KTS MPH feet Rate Location/Type
Fri 01:04:02 PM 26.0742 -80.1761 318° Northwest 167 192 1,000  Level Miami Center
Fri 01:05:10 PM 26.0769 -80.2361 273° West 218 251 3,000 2,186 Climbing Miami Center
Fri 01:06:11 PM 26.1322 -80.2769 326° Northwest 271 312 5,700 2,534 Climbing Miami Center
Fri 01:07:06 PM 26.1944 -80.3044 338° Northwest 282 325 7,900 1,678 Climbing Miami Center
Fri 01:08:09 PM 26.2469 -80.3731 310° West 282 325 9,000 537 Climbing Miami Center
Fri 01:09:00 PM 26.3639 -80.6973 318° Northwest  Level FlightAware Approximate
Fri 01:09:09 PM 26.2783 -80.4528 294° West 280 322 9,000  Level Miami Center
Fri 01:10:09 PM 26.3164 -80.5189 303° West 280 322 9,000 1,100 Level Miami Center
Fri 01:11:09 PM 26.3581 -80.6058 298° West 275 316 11,200 1,850 Climbing Miami Center
Fri 01:12:09 PM 26.3978 -80.6858 299° West 308 354 12,700 1,850 Climbing Miami Center
Fri 01:13:09 PM 26.4769 -80.7719 316° Northwest 343 395 14,900 2,150 Climbing Miami Center
Fri 01:14:09 PM 26.5369 -80.8714 304° West 364 419 17,000 2,000 Climbing Miami Center
Fri 01:15:09 PM 26.5947 -80.9733 302° West 389 448 18,900 1,700 Climbing Miami Center
Fri 01:16:09 PM 26.6464 -81.0681 301° West 400 460 20,400 1,600 Climbing Miami Center
Fri 01:17:09 PM 26.7078 -81.1772 302° West 407 468 22,100 1,550 Climbing Miami Center
Fri 01:18:09 PM 26.7650 -81.2864 300° West 412 474 23,500 1,400 Climbing Miami Center
Fri 01:19:09 PM 26.8406 -81.4103 304° West 423 487 24,900 850 Climbing Miami Center
Fri 01:20:09 PM 26.8992 -81.5336 298° West 438 504 25,200 750 Climbing Miami Center
Fri 01:21:09 PM 26.9561 -81.6475 299° West 461 531 26,400 1,200 Climbing Miami Center
Fri 01:22:09 PM 27.0186 -81.7736 299° West 468 539 27,600 1,550 Climbing Miami Center
Fri 01:23:09 PM 27.0850 -81.9072 299° West 463 533 29,500 1,450 Climbing Miami Center
Fri 01:24:09 PM 27.1456 -82.0264 300° West 457 526 30,500 1,000 Climbing Miami Center
Fri 01:25:09 PM 27.2036 -82.1550 297° West 452 520 31,500 1,450 Climbing Miami Center
Fri 01:26:09 PM 27.2342 -82.2872 285° West 444 511 33,400 1,650 Climbing Miami Center
Fri 01:27:09 PM 27.2592 -82.3981 284° West 427 491 34,800 1,050 Climbing Miami Center
Fri 01:28:09 PM 27.2933 -82.5375 285° West 420 483 35,500 600 Climbing Miami Center
Fri 01:29:09 PM 27.3194 -82.6650 283° West 420 483 36,000 250 Climbing Miami Center
Fri 01:30:09 PM 27.3497 -82.7925 285° West 420 483 36,000  Level Miami Center
Fri 01:31:09 PM 27.3797 -82.9250 284° West 431 496 36,000 -50 Level Miami Center
Fri 01:32:09 PM 27.4078 -83.0550 284° West 437 503 35,900  Descending Miami Center
Fri 01:33:09 PM 27.4375 -83.1875 284° West 437 503 36,000 50 Climbing Miami Center
Fri 01:34:09 PM 27.4650 -83.3200 283° West 437 503 36,000  Level Miami Center
Fri 01:35:09 PM 27.4925 -83.4478 284° West 437 503 36,000  Level Miami Center
Fri 01:36:09 PM 27.5222 -83.5736 285° West 432 497 36,000  Level Miami Center
Fri 01:37:09 PM 27.5517 -83.7017 285° West 432 497 36,000  Level Miami Center
Fri 01:38:09 PM 27.5789 -83.8297 284° West 426 490 36,000 -50 Level Miami Center
Fri 01:39:09 PM 27.6019 -83.9550 282° West 420 483 35,900  Descending Miami Center
Fri 01:40:09 PM 27.6289 -84.0808 284° West 412 474 36,000 50 Climbing Miami Center
Fri 01:41:09 PM 27.6642 -84.2072 288° West 417 480 36,000 -50 Level Miami Center
Fri 01:42:09 PM 27.6869 -84.3328 282° West 417 480 35,900  Descending Miami Center
Fri 01:43:09 PM 27.7117 -84.4561 283° West 423 487 36,000  Climbing Miami Center
Fri 01:44:09 PM 27.7383 -84.5822 283° West 418 481 35,900  Descending Miami Center
Fri 01:45:09 PM 27.7650 -84.7081 283° West 418 481 36,000 50 Climbing Miami Center
Fri 01:46:09 PM 27.7914 -84.8342 283° West 418 481 36,000  Level Miami Center
Fri 01:49:00 PM 27.8282 -85.0233 282° West  Level FlightAware Approximate
Fri 01:49:20 PM 27.8783 -85.2356 282° West 402 463 36,000  Level Jacksonville Center
Fri 01:50:20 PM 27.9156 -85.3631 288° West 423 487 36,000  Level Jacksonville Center
Fri 01:51:20 PM 27.9528 -85.4886 289° West 436 502 36,000  Level Jacksonville Center
Fri 01:52:20 PM 27.9919 -85.6142 289° West 436 502 36,000  Level Jacksonville Center
Fri 01:53:20 PM 28.0286 -85.7397 288° West 441 507 36,000  Level Jacksonville Center
Fri 01:54:20 PM 28.0658 -85.8583 290° West 425 489 36,000  Level Jacksonville Center
Fri 01:55:20 PM 28.1025 -85.9769 289° West 411 473 36,000  Level Jacksonville Center
Fri 01:56:20 PM 28.1392 -86.1028 288° West 411 473 36,000  Level Jacksonville Center
Fri 01:57:20 PM 28.1756 -86.2264 288° West 404 465 36,000  Level Jacksonville Center
Fri 01:58:20 PM 28.2100 -86.3431 289° West 415 478 36,000 -50 Level Jacksonville Center
Fri 01:59:20 PM 28.2483 -86.4714 289° West 415 478 35,900  Descending Jacksonville Center
Fri 02:00:20 PM 28.2806 -86.5858 288° West 405 466 36,000 50 Climbing Jacksonville Center
Fri 02:01:20 PM 28.3186 -86.7122 289° West 413 475 36,000  Level Jacksonville Center
Fri 02:02:20 PM 28.3567 -86.8361 289° West 413 475 36,000 -50 Level Jacksonville Center
Fri 02:03:20 PM 28.3903 -86.9625 287° West 413 475 35,900  Descending Jacksonville Center
Fri 02:04:20 PM 28.4258 -87.0842 288° West 413 475 36,000 50 Climbing Jacksonville Center
Fri 02:05:20 PM 28.4633 -87.2111 289° West 413 475 36,000 -50 Level Jacksonville Center
Fri 02:06:20 PM 28.4986 -87.3375 288° West 418 481 35,900  Descending Jacksonville Center
Fri 02:07:20 PM 28.5381 -87.4669 289° West 418 481 36,000 36 Climbing Jacksonville Center
Fri 02:09:08 PM 28.6017 -87.6906 288° West 421 484 36,000  Level Houston Center
Fri 02:10:10 PM 28.6367 -87.8181 287° West 423 487 36,000  Level Houston Center
Fri 02:11:12 PM 28.6719 -87.9439 288° West 418 481 36,000  Level Houston Center
Fri 02:12:15 PM 28.7072 -88.0689 288° West 417 480 36,000  Level Houston Center
Fri 02:13:17 PM 28.7464 -88.2089 288° West 418 481 36,000 -48 Level Houston Center
Fri 02:14:19 PM 28.7814 -88.3328 288° West 413 475 35,900  Descending Houston Center
Fri 02:15:21 PM 28.8172 -88.4581 288° West 415 478 36,000 48 Climbing Houston Center
Fri 02:16:23 PM 28.8517 -88.5819 288° West 412 474 36,000  Level Houston Center
Fri 02:17:25 PM 28.8847 -88.7067 287° West 411 473 36,000  Level Houston Center
Fri 02:18:27 PM 28.9114 -88.8328 284° West 411 473 36,000  Level Houston Center
Fri 02:19:30 PM 28.9436 -88.9853 284° West 411 473 36,000  Level Houston Center
Fri 02:20:32 PM 28.9706 -89.1153 283° West 420 483 36,000  Level Houston Center
Fri 02:21:34 PM 28.9986 -89.2433 284° West 418 481 36,000 -48 Level Houston Center
Fri 02:22:36 PM 29.0242 -89.3692 283° West 411 473 35,900  Descending Houston Center
Fri 02:23:38 PM 29.0503 -89.4944 283° West 407 468 36,000  Climbing Houston Center
Fri 02:24:40 PM 29.0756 -89.6208 283° West 409 471 35,900  Descending Houston Center
Fri 02:25:42 PM 29.1081 -89.7731 284° West 410 472 36,000 48 Climbing Houston Center
Fri 02:26:45 PM 29.1328 -89.8994 283° West 407 468 36,000  Level Houston Center
Fri 02:27:47 PM 29.1592 -90.0233 284° West 400 460 36,000  Level Houston Center
Fri 02:28:49 PM 29.1822 -90.1506 282° West 405 466 36,000  Level Houston Center
Fri 02:29:51 PM 29.1972 -90.2756 278° West 399 459 36,000 -48 Level Houston Center
Fri 02:30:53 PM 29.2117 -90.4003 278° West 396 456 35,900 -48 Descending Houston Center
Fri 02:31:55 PM 29.2308 -90.5517 278° West 399 459 35,900 48 Level Houston Center
Fri 02:32:57 PM 29.2467 -90.6758 278° West 396 456 36,000 48 Climbing Houston Center
Fri 02:34:00 PM 29.2622 -90.7989 278° West 393 452 36,000 -48 Level Houston Center
Fri 02:35:02 PM 29.2764 -90.9222 278° West 391 450 35,900 -48 Descending Houston Center
Fri 02:36:04 PM 29.2917 -91.0436 278° West 388 447 35,900 48 Level Houston Center
Fri 02:37:06 PM 29.3067 -91.1681 278° West 391 450 36,000  Climbing Houston Center
Fri 02:38:08 PM 29.3244 -91.3175 278° West 393 452 35,900  Descending Houston Center
Fri 02:39:10 PM 29.3400 -91.4417 278° West 394 453 36,000  Climbing Houston Center
Fri 02:40:12 PM 29.3539 -91.5644 277° West 392 451 35,900 -48 Descending Houston Center
Fri 02:41:14 PM 29.3692 -91.6875 278° West 390 449 35,900  Level Houston Center
Fri 02:42:17 PM 29.3861 -91.8297 278° West 391 450 35,900 48 Level Houston Center
Fri 02:43:19 PM 29.4003 -91.9522 278° West 389 448 36,000  Climbing Houston Center
Fri 02:44:21 PM 29.4139 -92.0736 277° West 386 444 35,900 -48 Descending Houston Center
Fri 02:45:23 PM 29.4275 -92.1953 277° West 385 443 35,900  Level Houston Center
Fri 02:46:25 PM 29.4408 -92.3158 277° West 382 440 35,900 48 Level Houston Center
Fri 02:47:27 PM 29.4550 -92.4367 278° West 381 438 36,000 48 Climbing Houston Center
Fri 02:48:29 PM 29.4619 -92.5817 273° West 380 437 36,000  Level Houston Center
Fri 02:49:32 PM 29.4681 -92.7019 273° West 379 436 36,000 -192 Level Houston Center
Fri 02:50:34 PM 29.4742 -92.8217 273° West 377 434 35,600 -677 Descending Houston Center
Fri 02:51:36 PM 29.4794 -92.9408 273° West 375 432 34,600 -968 Descending Houston Center
Fri 02:52:38 PM 29.4836 -93.0631 272° West 380 437 33,600 -1,210 Descending Houston Center
Fri 02:53:40 PM 29.4897 -93.1850 273° West 382 440 32,100 -2,226 Descending Houston Center
Fri 02:54:42 PM 29.4956 -93.3278 273° West 375 432 29,000 -2,516 Descending Houston Center
Fri 02:55:44 PM 29.4997 -93.4444 272° West 368 423 26,900 -2,081 Descending Houston Center
Fri 02:56:46 PM 29.5042 -93.5564 273° West 356 410 24,700 -2,129 Descending Houston Center
Fri 02:57:48 PM 29.5086 -93.6636 273° West 340 391 22,500 -2,016 Descending Houston Center
Fri 02:58:51 PM 29.5122 -93.7706 272° West 334 384 20,500 -2,016 Descending Houston Center
Fri 02:59:53 PM 29.5156 -93.8753 272° West 328 377 18,300 -2,267 Descending Houston Center
Fri 03:00:21 PM 29.5183 -93.9386 273° West 322 371 17,100 -2,136 Descending Houston Center
Fri 03:00:52 PM 29.5192 -93.9867 271° West 319 367 16,200 -1,875 Descending Houston Center
Fri 03:01:57 PM 29.5242 -94.0950 273° West 311 358 14,100 -1,559 Descending Houston Center
Fri 03:02:59 PM 29.5269 -94.1786 272° West 295 339 12,900 -532 Descending Houston Center
Fri 03:04:01 PM 29.5306 -94.2714 273° West 292 336 13,000 48 Climbing Houston Center
Fri 03:05:03 PM 29.5486 -94.3800 281° West 289 333 13,000 -51 Level Houston Center
Fri 03:05:58 PM 29.5839 -94.4636 296° West 290 334 12,900 -724 Descending Houston Center
Fri 03:06:59 PM 29.6142 -94.5367 296° West 258 297 11,600 -1,525 Descending Houston Center
Fri 03:08:00 PM 29.6469 -94.6144 296° West 257 296 9,800 -1,463 Descending Houston Center
Fri 03:09:02 PM 29.6908 -94.6761 309° West 256 295 8,600 -1,209 Descending Houston Center
Fri 03:10:14 PM 29.7572 -94.7294 325° Northwest 246 283 7,100 -738 Descending Houston Center
Fri 03:11:04 PM 29.8025 -94.7656 325° Northwest 237 273 7,100 -536 Level Houston Center
Fri 03:12:06 PM 29.8536 -94.8169 319° Northwest 228 262 6,100 -976 Descending Houston Center
Fri 03:13:07 PM 29.8947 -94.8744 310° West 228 262 5,100 -492 Descending Houston Center
Fri 03:14:08 PM 29.9372 -94.9244 314° West 221 254 5,100 -49 Level Houston Center
Fri 03:15:10 PM 29.9850 -94.9836 313° West 231 266 5,000 -390 Descending Houston Center
Fri 03:16:11 PM 29.9936 -95.0525 278° West 215 247 4,300 -623 Descending Houston Center
Fri 03:16:27 PM 29.9942 -95.0653 273° West 217 250 4,200 -590 Descending Houston Center
Fri 03:17:12 PM 29.9936 -95.1203 269° West 209 241 3,700 -774 Descending Houston Center
Fri 03:17:29 PM 29.9936 -95.1319 270° West 210 242 3,400 -1,180 Descending Houston Center
Fri 03:18:13 PM 29.9936 -95.1878 270° West 213 245 2,500 -1,065 Descending Houston Center
Fri 03:18:31 PM 29.9933 -95.1994 268° West 212 244 2,300 -984 Descending Houston Center
Fri 03:19:14 PM 29.9928 -95.2481 269° West 154 177 1,500 -1,116 Descending Houston Center

Login

Don't have an account? Register now (free) for customized features, flight alerts, and more!